Aviation Digital Data Service (ADDS)

Output produced by METARs form (1623 UTC 23 January 2019)
found at http://www.aviationweather.gov/metar/data/
 
Forecast for: ZSFZ (FUZHOU , CN)
Text: TAF ZSFZ 231500Z 2318/2418 03004MPS 5000 BR SCT020 TX16/2406Z TN09/2321Z
Forecast period: 1800 UTC 23 January 2019 to 1800 UTC 24 January 2019
Forecast type: FROM: standard forecast or significant change
Winds: from the NNE (30 degrees) at 9 MPH (8 knots; 4.1 m/s)
Visibility: 3 miles (5 km)
Ceiling: at least 12,000 feet AGL
Clouds: scattered clouds at 2000 feet AGL
Weather: BR  (mist)